Virginiborg — PBDL — position and weather

sailwx.info

Track history (hours):
 
Tides and Currents Weather Stations Pressure Air Temp Water Temp Dewpoint Dewpoint Depression Visibility Wind Speed Wind Dir Waves Ship Positions

Virginiborg

Last reported at 2014-Dec-16 04:29 UTC. Time now 2014-Dec-22 10:37 UTC.
Position N 25°41' W 079°56'.

Length 132 m; draft 5.5 m.

Type: Cargo ship. MMSI: 244632000.

Date/timePositionNaut miles runAvg speedWind from/ knotsBaromVisibWave heightAir tempDewpointWater temp
2014-Dec-16 04:29N 25°41' W 079°56'1010.9
2014-Dec-16 03:32N 25°51' W 079°55'1111.5
2014-Dec-16 02:33N 26°03' W 079°53'1312.9
2014-Dec-16 01:33N 26°15' W 079°52'5 4.5
2014-Dec-16 00:31N 26°20' W 079°51'7 6.8
2014-Dec-15 23:33N 26°26' W 079°51'1212.1
2014-Dec-15 22:33N 26°38' W 079°50'1211.9
2014-Dec-15 21:33N 26°50' W 079°49'1311.8
2014-Dec-15 20:28N 27°03' W 079°48'  
Track history (hours):
 
Tides and Currents Weather Stations Pressure Air Temp Water Temp Dewpoint Dewpoint Depression Visibility Wind Speed Wind Dir Waves Ship Positions

Virginiborg

Last reported at 2014-Dec-16 04:29 UTC. Time now 2014-Dec-22 10:37 UTC.
Position N 25°41' W 079°56'.

Length 132 m; draft 5.5 m.

Type: Cargo ship. MMSI: 244632000.

Date/timePositionNaut miles runAvg speedWind from/ knotsBaromVisibWave heightAir tempDewpointWater temp
2014-Dec-16 04:29N 25°41' W 079°56'1010.9
2014-Dec-16 03:32N 25°51' W 079°55'1111.5
2014-Dec-16 02:33N 26°03' W 079°53'1312.9
2014-Dec-16 01:33N 26°15' W 079°52'5 4.5
2014-Dec-16 00:31N 26°20' W 079°51'7 6.8
2014-Dec-15 23:33N 26°26' W 079°51'1212.1
2014-Dec-15 22:33N 26°38' W 079°50'1211.9
2014-Dec-15 21:33N 26°50' W 079°49'1311.8
2014-Dec-15 20:28N 27°03' W 079°48'  

Dump ship's entire track history